createdAt,value
2023-04-06T00:01:47.872Z,100682.19
2023-04-06T00:06:49.407Z,100681.47
2023-04-06T00:11:51.032Z,100688.84
2023-04-06T00:16:52.542Z,100679.19
2023-04-06T00:21:54.074Z,100688.19
2023-04-06T00:26:56.147Z,100681.03
2023-04-06T00:31:57.617Z,100668.75
2023-04-06T00:36:59.058Z,100677.75
2023-04-06T00:42:01.480Z,100674.44
2023-04-06T00:47:03.026Z,100672.69
2023-04-06T00:52:04.626Z,100674.81
2023-04-06T00:57:06.466Z,100671.63
2023-04-06T01:02:08.992Z,100676.94
2023-04-06T01:07:11.042Z,100684.03
2023-04-06T01:12:12.503Z,100680.31
2023-04-06T01:17:14.085Z,100671.34
2023-04-06T01:22:17.590Z,100665.38
2023-04-06T01:27:19.103Z,100677.75
2023-04-06T01:32:20.559Z,100674.22
2023-04-06T01:37:21.981Z,100669.84
2023-04-06T01:42:23.472Z,100669.69
2023-04-06T01:47:24.963Z,100662.72
2023-04-06T01:52:26.686Z,100670.94
2023-04-06T01:57:28.474Z,100664.81
2023-04-06T02:02:29.985Z,100675.44
2023-04-06T02:07:31.654Z,100673.84
2023-04-06T02:12:33.140Z,100664.31
2023-04-06T02:17:34.655Z,100667.03
2023-04-06T02:22:36.664Z,100665.41
2023-04-06T02:27:38.206Z,100664.56
2023-04-06T02:32:39.731Z,100663.53
2023-04-06T02:37:41.246Z,100664.47
2023-04-06T02:42:42.676Z,100662.78
2023-04-06T02:47:44.132Z,100685.03
2023-04-06T02:52:45.621Z,100676.22
2023-04-06T02:57:47.201Z,100683.31
2023-04-06T03:02:48.687Z,100689.03
2023-04-06T03:07:50.228Z,100688.91
2023-04-06T03:12:51.669Z,100683.41
2023-04-06T03:17:53.093Z,100691.28
2023-04-06T03:22:54.554Z,100694.78
2023-04-06T03:27:55.994Z,100694.63
2023-04-06T03:32:57.399Z,100699.16
2023-04-06T03:37:58.811Z,100702.88
2023-04-06T03:43:00.413Z,100703.94
2023-04-06T03:48:01.917Z,100715.16
2023-04-06T03:53:06.048Z,100713.41
2023-04-06T03:58:07.729Z,100710.84
2023-04-06T04:03:09.242Z,100714.47
2023-04-06T04:08:10.878Z,100710.91
2023-04-06T04:13:12.284Z,100718.00
2023-04-06T04:18:13.715Z,100715.50
2023-04-06T04:23:15.138Z,100720.06
2023-04-06T04:28:16.555Z,100731.69
2023-04-06T04:33:17.970Z,100717.63
2023-04-06T04:38:19.404Z,100718.50
2023-04-06T04:43:21.077Z,100714.06
2023-04-06T04:48:22.573Z,100720.13
2023-04-06T04:53:25.154Z,100722.72
2023-04-06T04:58:26.707Z,100726.84
2023-04-06T05:03:28.364Z,100729.16
2023-04-06T05:08:30.018Z,100724.44
2023-04-06T05:13:32.276Z,100722.38
2023-04-06T05:18:33.732Z,100726.03
2023-04-06T05:23:35.491Z,100725.59
2023-04-06T05:28:37.377Z,100726.84
2023-04-06T05:33:38.866Z,100735.38
2023-04-06T05:38:40.277Z,100735.28
2023-04-06T05:43:41.675Z,100740.13
2023-04-06T05:48:43.112Z,100730.63
2023-04-06T05:53:44.579Z,100742.03
2023-04-06T05:58:46.046Z,100736.13
2023-04-06T06:03:47.461Z,100733.38
2023-04-06T06:08:49.146Z,100732.19
2023-04-06T06:13:50.623Z,100741.53
2023-04-06T06:18:52.030Z,100743.75
2023-04-06T06:23:55.021Z,100741.72
2023-04-06T06:28:56.816Z,100734.94
2023-04-06T06:33:58.261Z,100734.94
2023-04-06T06:39:01.567Z,100738.38
2023-04-06T06:44:03.369Z,100737.91
2023-04-06T06:49:04.825Z,100730.44
2023-04-06T06:54:06.797Z,100730.72
2023-04-06T06:59:08.821Z,100721.16
2023-04-06T07:04:10.604Z,100728.31
2023-04-06T07:09:12.498Z,100720.19
2023-04-06T07:14:13.999Z,100726.78
2023-04-06T07:19:15.429Z,100718.53
2023-04-06T07:24:16.936Z,100731.81
2023-04-06T07:29:19.071Z,100735.81
2023-04-06T07:34:20.641Z,100740.28
2023-04-06T07:39:22.081Z,100741.03
2023-04-06T07:44:23.761Z,100753.03
2023-04-06T07:49:25.187Z,100751.81
2023-04-06T07:54:26.664Z,100739.22
2023-04-06T07:59:28.214Z,100743.16
2023-04-06T08:04:29.693Z,100741.13
2023-04-06T08:09:31.335Z,100747.00
2023-04-06T08:14:32.745Z,100740.31
2023-04-06T08:19:34.209Z,100743.13
2023-04-06T08:24:35.903Z,100757.94
2023-04-06T08:29:37.441Z,100745.75
2023-04-06T08:34:38.906Z,100745.59
2023-04-06T08:39:40.356Z,100744.97
2023-04-06T08:44:42.302Z,100746.28
2023-04-06T08:49:45.779Z,100742.31
2023-04-06T08:54:48.335Z,100749.56
2023-04-06T08:59:51.282Z,100745.44
2023-04-06T09:04:54.879Z,100738.88
2023-04-06T09:09:56.364Z,100736.84
2023-04-06T09:14:58.773Z,100729.84
2023-04-06T09:20:01.872Z,100721.97
2023-04-06T09:25:03.548Z,100714.03
2023-04-06T09:30:07.141Z,100729.84
2023-04-06T09:35:09.752Z,100722.22
2023-04-06T09:40:11.699Z,100711.25
2023-04-06T09:45:13.980Z,100711.91
2023-04-06T09:50:16.934Z,100717.94
2023-04-06T09:55:35.329Z,100719.09
2023-04-06T10:00:45.902Z,100717.56
2023-04-06T10:05:53.233Z,100697.41
2023-04-06T10:10:56.641Z,100697.91
2023-04-06T10:16:01.343Z,100699.94
2023-04-06T10:21:09.987Z,100702.03
2023-04-06T10:26:18.200Z,100693.38
2023-04-06T10:31:27.328Z,100690.03
2023-04-06T10:36:33.712Z,100683.47
2023-04-06T10:41:35.926Z,100682.91
2023-04-06T10:46:37.349Z,100672.56
2023-04-06T10:51:40.064Z,100685.59
2023-04-06T10:56:41.489Z,100668.63
2023-04-06T11:01:46.264Z,100664.97
2023-04-06T11:06:52.133Z,100669.09
2023-04-06T11:11:54.382Z,100662.09
2023-04-06T11:16:56.087Z,100664.75
2023-04-06T11:22:07.197Z,100650.59
2023-04-06T11:27:08.777Z,100644.03
2023-04-06T11:32:10.421Z,100639.00
2023-04-06T11:37:12.802Z,100639.59
2023-04-06T11:42:14.335Z,100634.72
2023-04-06T11:47:16.013Z,100630.88
2023-04-06T11:52:20.802Z,100620.22
2023-04-06T11:57:26.348Z,100624.94
2023-04-06T12:02:28.082Z,100620.31
2023-04-06T12:07:30.846Z,100606.66
2023-04-06T12:12:32.719Z,100606.19
2023-04-06T12:17:34.212Z,100607.44
2023-04-06T12:22:35.689Z,100594.38
2023-04-06T12:27:37.115Z,100598.63
2023-04-06T12:32:38.531Z,100584.53
2023-04-06T12:37:41.137Z,100577.53
2023-04-06T12:42:42.732Z,100568.66
2023-04-06T12:47:44.285Z,100562.66
2023-04-06T12:52:45.779Z,100565.09
2023-04-06T12:57:47.360Z,100555.66
2023-04-06T13:02:49.052Z,100549.94
2023-04-06T13:07:50.643Z,100539.28
2023-04-06T13:12:52.063Z,100539.69
2023-04-06T13:17:56.316Z,100533.34
2023-04-06T13:22:58.042Z,100538.16
2023-04-06T13:27:59.881Z,100532.41
2023-04-06T13:33:01.891Z,100528.78
2023-04-06T13:38:03.578Z,100524.25
2023-04-06T13:43:05.039Z,100520.19
2023-04-06T13:48:07.038Z,100515.25
2023-04-06T13:53:08.461Z,100512.63
2023-04-06T13:58:10.268Z,100529.88
2023-04-06T14:03:11.850Z,100516.44
2023-04-06T14:08:13.550Z,100516.06
2023-04-06T14:13:15.000Z,100510.34
2023-04-06T14:18:16.940Z,100512.50
2023-04-06T14:23:18.351Z,100514.97
2023-04-06T14:28:22.051Z,100503.34
2023-04-06T14:33:23.467Z,100494.09
2023-04-06T14:38:25.009Z,100501.53
2023-04-06T14:43:27.028Z,100493.19
2023-04-06T14:48:29.051Z,100497.28
2023-04-06T14:53:30.608Z,100491.34
2023-04-06T14:58:32.135Z,100488.25
2023-04-06T15:03:33.709Z,100491.50
2023-04-06T15:08:35.393Z,100488.16
2023-04-06T15:13:37.066Z,100491.25
2023-04-06T15:18:38.472Z,100489.22
2023-04-06T15:23:40.044Z,100474.44
2023-04-06T15:28:41.797Z,100478.56
2023-04-06T15:33:44.770Z,100489.47
2023-04-06T15:38:46.573Z,100477.63
2023-04-06T15:43:50.091Z,100469.56
2023-04-06T15:48:51.834Z,100476.34
2023-04-06T15:53:53.379Z,100474.06
2023-04-06T15:58:54.896Z,100467.28
2023-04-06T16:03:56.374Z,100469.09
2023-04-06T16:08:58.041Z,100460.09
2023-04-06T16:14:00.158Z,100469.09
2023-04-06T16:19:01.941Z,100470.28
2023-04-06T16:24:04.597Z,100464.44
2023-04-06T16:29:06.506Z,100462.34
2023-04-06T16:34:07.966Z,100463.59
2023-04-06T16:39:10.099Z,100463.00
2023-04-06T16:44:13.073Z,100462.41
2023-04-06T16:49:15.893Z,100468.78
2023-04-06T16:54:17.598Z,100471.88
2023-04-06T16:59:19.075Z,100472.81
2023-04-06T17:04:20.794Z,100466.13
2023-04-06T17:09:23.635Z,100466.97
2023-04-06T17:14:25.993Z,100466.69
2023-04-06T17:19:27.488Z,100461.53
2023-04-06T17:24:28.946Z,100462.25
2023-04-06T17:29:30.422Z,100459.78
2023-04-06T17:34:31.876Z,100470.53
2023-04-06T17:39:33.333Z,100465.53
2023-04-06T17:44:35.316Z,100481.28
2023-04-06T17:49:36.733Z,100482.59
2023-04-06T17:54:38.158Z,100479.34
2023-04-06T17:59:41.709Z,100474.84
2023-04-06T18:04:45.540Z,100488.16
2023-04-06T18:09:47.254Z,100481.25
2023-04-06T18:14:48.746Z,100494.25
2023-04-06T18:19:50.280Z,100493.72
2023-04-06T18:24:51.718Z,100488.34
2023-04-06T18:29:53.562Z,100492.38
2023-04-06T18:34:57.486Z,100500.81
2023-04-06T18:39:58.915Z,100500.63
2023-04-06T18:45:00.636Z,100499.28
2023-04-06T18:50:02.374Z,100503.69
2023-04-06T18:55:04.143Z,100498.50
2023-04-06T19:00:06.289Z,100507.16
2023-04-06T19:05:08.322Z,100504.47
2023-04-06T19:10:10.487Z,100496.69
2023-04-06T19:15:12.239Z,100496.78
2023-04-06T19:20:13.660Z,100495.06
2023-04-06T19:25:15.328Z,100514.81
2023-04-06T19:30:16.780Z,100502.16
2023-04-06T19:35:18.256Z,100508.94
2023-04-06T19:40:19.755Z,100499.59
2023-04-06T19:45:21.244Z,100490.63
2023-04-06T19:50:22.713Z,100497.09
2023-04-06T19:55:24.130Z,100492.09
2023-04-06T20:00:25.657Z,100488.75
2023-04-06T20:05:27.073Z,100491.53
2023-04-06T20:10:28.521Z,100486.41
2023-04-06T20:15:30.807Z,100493.06
2023-04-06T20:20:32.363Z,100489.22
2023-04-06T20:25:33.811Z,100484.69
2023-04-06T20:30:35.591Z,100485.63
2023-04-06T20:35:37.373Z,100488.13
2023-04-06T20:40:40.003Z,100480.44
2023-04-06T20:45:41.638Z,100481.19
2023-04-06T20:50:43.080Z,100476.78
2023-04-06T20:55:44.910Z,100470.59
2023-04-06T21:00:49.501Z,100475.25
2023-04-06T21:05:55.844Z,100453.03
2023-04-06T21:10:57.334Z,100459.13
2023-04-06T21:15:59.702Z,100446.63
2023-04-06T21:21:01.156Z,100459.69
2023-04-06T21:26:02.704Z,100460.25
2023-04-06T21:31:08.735Z,100449.44
2023-04-06T21:36:10.282Z,100449.75
2023-04-06T21:41:11.762Z,100435.91
2023-04-06T21:46:13.220Z,100439.38
2023-04-06T21:51:22.100Z,100438.38
2023-04-06T21:56:25.420Z,100431.09
2023-04-06T22:01:28.524Z,100430.22
2023-04-06T22:06:30.273Z,100424.38
2023-04-06T22:11:31.720Z,100427.84
2023-04-06T22:16:33.483Z,100422.97
2023-04-06T22:21:34.998Z,100419.50
2023-04-06T22:26:36.483Z,100418.25
2023-04-06T22:31:37.971Z,100408.84
2023-04-06T22:36:39.429Z,100409.97
2023-04-06T22:41:40.893Z,100399.25
2023-04-06T22:46:42.431Z,100416.25
2023-04-06T22:51:44.717Z,100413.19
2023-04-06T22:56:46.173Z,100407.28
2023-04-06T23:01:47.661Z,100404.53
2023-04-06T23:06:49.154Z,100411.22
2023-04-06T23:11:50.719Z,100408.91
2023-04-06T23:16:52.164Z,100412.44
2023-04-06T23:21:55.994Z,100418.44
2023-04-06T23:26:57.509Z,100405.03
2023-04-06T23:31:58.994Z,100404.25
2023-04-06T23:37:03.410Z,100398.81
2023-04-06T23:42:05.168Z,100399.06
2023-04-06T23:47:06.689Z,100397.16
2023-04-06T23:52:08.132Z,100392.84
2023-04-06T23:57:09.543Z,100400.69
